Time;durP1;ratioP1;P1;durP2;ratioP2;P2;SDS_P1;SDS_P2;PMS_P1;PMS_P2;Temp;Humidity;BMP_temperature;BMP_pressure;BME280_temperature;BME280_humidity;BME280_pressure;Samples;Min_cycle;Max_cycle;Signal;HPM_P1;HPM_P2
2022/03/27 00:01:38;;;;;;;53.95;40.45;;;;;;;;;;10308692;28;20418;-89
2022/03/27 00:06:40;;;;;;;60.20;41.03;;;;;;;;;;10299963;28;20746;-89
2022/03/27 00:11:44;;;;;;;53.30;39.33;;;;;;;;;;10244429;28;20426;-90
2022/03/27 00:16:47;;;;;;;53.72;39.67;;;;;;;;;;10283628;28;20529;-89
2022/03/27 00:21:49;;;;;;;55.53;39.80;;;;;;;;;;10315450;28;20412;-89
2022/03/27 00:26:53;;;;;;;53.67;38.90;;;;;;;;;;10286666;28;20965;-89
2022/03/27 00:31:54;;;;;;;55.92;39.20;;;;;;;;;;10286126;28;20888;-88
2022/03/27 00:36:57;;;;;;;56.15;40.67;;;;;;;;;;10270315;28;20451;-89
2022/03/27 00:42:00;;;;;;;58.13;42.13;;;;;;;;;;10254363;28;20413;-89
2022/03/27 00:47:02;;;;;;;58.28;42.08;;;;;;;;;;10297351;28;20509;-88
2022/03/27 00:52:05;;;;;;;60.38;44.03;;;;;;;;;;10315040;28;20423;-88
2022/03/27 00:57:08;;;;;;;59.47;44.22;;;;;;;;;;10289048;28;20427;-90
2022/03/27 01:02:10;;;;;;;61.50;43.72;;;;;;;;;;10307625;28;20787;-89
2022/03/27 01:07:14;;;;;;;64.65;44.08;;;;;;;;;;10310995;28;20428;-88
2022/03/27 01:12:24;;;;;;;58.50;42.42;;;;;;;;;;10256666;28;20491;-88
2022/03/27 01:17:27;;;;;;;57.45;41.90;;;;;;;;;;10303245;28;20439;-90
2022/03/27 01:22:31;;;;;;;58.97;42.30;;;;;;;;;;10298022;28;20404;-89
2022/03/27 01:27:33;;;;;;;60.90;41.20;;;;;;;;;;10323264;28;20420;-88
2022/03/27 01:32:35;;;;;;;55.42;41.15;;;;;;;;;;10319299;28;20453;-90
2022/03/27 01:37:38;;;;;;;57.33;39.60;;;;;;;;;;10322818;28;20510;-91
2022/03/27 01:42:40;;;;;;;53.30;39.00;;;;;;;;;;10328483;28;20472;-89
2022/03/27 01:47:42;;;;;;;53.40;38.37;;;;;;;;;;10327417;28;20444;-90
2022/03/27 01:52:46;;;;;;;54.40;37.97;;;;;;;;;;10256800;28;20707;-91
2022/03/27 01:57:48;;;;;;;52.90;37.92;;;;;;;;;;10253505;28;20432;-89
2022/03/27 02:02:49;;;;;;;56.65;38.65;;;;;;;;;;10276328;28;20415;-91
2022/03/27 02:07:53;;;;;;;52.47;38.53;;;;;;;;;;10297896;28;20464;-90
2022/03/27 02:12:55;;;;;;;55.90;38.57;;;;;;;;;;10299640;28;20417;-89
2022/03/27 02:17:58;;;;;;;53.92;38.45;;;;;;;;;;10290998;28;20432;-89
2022/03/27 02:23:02;;;;;;;52.83;38.87;;;;;;;;;;10301175;28;20467;-88
2022/03/27 02:28:04;;;;;;;57.20;40.33;;;;;;;;;;10306518;28;20412;-89
2022/03/27 02:33:06;;;;;;;52.55;39.42;;;;;;;;;;10296724;28;20396;-89
2022/03/27 02:38:10;;;;;;;53.58;39.05;;;;;;;;;;10303557;28;20442;-89
2022/03/27 02:43:12;;;;;;;55.65;38.33;;;;;;;;;;10307053;28;20418;-91
2022/03/27 02:48:14;;;;;;;53.17;37.58;;;;;;;;;;10301339;28;20420;-90
2022/03/27 02:53:17;;;;;;;52.30;37.97;;;;;;;;;;10302345;28;20403;-90
2022/03/27 02:58:20;;;;;;;55.23;37.80;;;;;;;;;;10300624;28;20709;-89
2022/03/27 03:03:23;;;;;;;50.90;36.13;;;;;;;;;;10294336;28;20531;-88
2022/03/27 03:08:28;;;;;;;51.70;36.60;;;;;;;;;;10305087;28;20533;-88
2022/03/27 03:13:30;;;;;;;51.15;37.53;;;;;;;;;;10313031;28;20483;-88
2022/03/27 03:18:34;;;;;;;51.63;37.30;;;;;;;;;;10306302;28;20419;-90
2022/03/27 03:23:38;;;;;;;49.00;35.65;;;;;;;;;;10300316;28;20443;-88
2022/03/27 03:28:40;;;;;;;54.03;36.28;;;;;;;;;;10300386;28;20464;-87
2022/03/27 03:33:42;;;;;;;47.93;34.17;;;;;;;;;;10302362;28;20827;-88
2022/03/27 03:38:45;;;;;;;47.22;34.75;;;;;;;;;;10300125;28;20439;-88
2022/03/27 03:43:47;;;;;;;47.23;34.17;;;;;;;;;;10299232;28;20444;-88
2022/03/27 03:48:49;;;;;;;47.73;34.30;;;;;;;;;;10288797;28;20490;-88
2022/03/27 03:53:52;;;;;;;47.03;33.42;;;;;;;;;;10295384;28;20403;-89
2022/03/27 03:58:54;;;;;;;43.40;31.53;;;;;;;;;;10302651;28;20457;-88
2022/03/27 04:03:56;;;;;;;43.73;31.00;;;;;;;;;;10301430;28;20413;-89
2022/03/27 04:09:00;;;;;;;43.90;31.93;;;;;;;;;;10291476;28;21104;-89
2022/03/27 04:14:01;;;;;;;42.25;31.20;;;;;;;;;;10295029;28;20464;-88
2022/03/27 04:19:03;;;;;;;44.92;32.10;;;;;;;;;;10291828;28;20511;-89
2022/03/27 04:24:07;;;;;;;45.37;32.97;;;;;;;;;;10297277;28;20411;-89
2022/03/27 04:29:10;;;;;;;43.55;31.65;;;;;;;;;;10298360;28;20483;-90
2022/03/27 04:34:12;;;;;;;45.88;32.63;;;;;;;;;;10297059;28;20438;-89
2022/03/27 04:39:15;;;;;;;39.95;30.80;;;;;;;;;;10299109;28;20441;-88
2022/03/27 04:44:17;;;;;;;46.17;32.05;;;;;;;;;;10299587;28;20461;-89
2022/03/27 04:49:19;;;;;;;45.17;32.20;;;;;;;;;;10295769;28;20452;-88
2022/03/27 04:54:22;;;;;;;42.97;32.03;;;;;;;;;;10298242;28;20497;-90
2022/03/27 04:59:25;;;;;;;43.03;31.17;;;;;;;;;;10293322;28;20591;-88
2022/03/27 05:04:27;;;;;;;44.25;31.55;;;;;;;;;;10293487;28;20438;-88
2022/03/27 05:09:30;;;;;;;46.05;32.88;;;;;;;;;;10292264;28;20419;-88
2022/03/27 05:14:32;;;;;;;47.00;31.33;;;;;;;;;;10293783;28;20397;-89
2022/03/27 05:19:34;;;;;;;44.40;30.98;;;;;;;;;;10282047;28;21393;-89
2022/03/27 05:24:37;;;;;;;41.38;28.90;;;;;;;;;;10297536;28;20495;-89
2022/03/27 05:29:39;;;;;;;38.38;28.60;;;;;;;;;;10278270;28;20410;-88
2022/03/27 05:34:41;;;;;;;36.93;27.80;;;;;;;;;;10291500;28;20446;-87
2022/03/27 05:39:45;;;;;;;39.10;27.57;;;;;;;;;;10272876;28;20432;-88
2022/03/27 05:44:47;;;;;;;34.58;26.77;;;;;;;;;;10270848;28;20416;-88
2022/03/27 05:49:48;;;;;;;41.05;28.40;;;;;;;;;;10291442;28;20431;-88
2022/03/27 05:54:52;;;;;;;37.15;27.63;;;;;;;;;;10299640;28;20448;-88
2022/03/27 05:59:54;;;;;;;36.67;27.15;;;;;;;;;;10296273;28;20413;-87
2022/03/27 06:04:56;;;;;;;37.10;26.20;;;;;;;;;;10299449;28;20456;-88
2022/03/27 06:09:59;;;;;;;38.38;27.33;;;;;;;;;;10272475;28;20483;-87
2022/03/27 06:15:01;;;;;;;38.30;27.10;;;;;;;;;;10317210;28;20435;-88
2022/03/27 06:20:04;;;;;;;35.77;26.00;;;;;;;;;;10318166;28;20486;-89
2022/03/27 06:25:09;;;;;;;38.08;28.58;;;;;;;;;;10313050;28;20443;-88
2022/03/27 06:30:15;;;;;;;40.17;29.98;;;;;;;;;;10343544;28;20462;-89
2022/03/27 06:35:18;;;;;;;42.67;30.90;;;;;;;;;;10317080;28;20418;-88
2022/03/27 06:40:22;;;;;;;39.40;29.17;;;;;;;;;;10306516;28;20554;-88
2022/03/27 06:45:24;;;;;;;35.78;27.52;;;;;;;;;;10286561;28;20440;-89
2022/03/27 06:50:26;;;;;;;36.92;26.73;;;;;;;;;;10307332;28;20418;-88
2022/03/27 06:55:29;;;;;;;35.30;24.90;;;;;;;;;;10276111;28;20514;-88
2022/03/27 07:05:51;;;;;;;34.63;25.03;;;;;;;;;;10284200;28;20410;-88
2022/03/27 07:10:55;;;;;;;33.97;24.90;;;;;;;;;;10305834;28;20549;-87
2022/03/27 07:15:57;;;;;;;38.43;26.13;;;;;;;;;;10283199;28;20470;-89
2022/03/27 07:20:59;;;;;;;36.83;26.43;;;;;;;;;;10282124;28;20430;-90
2022/03/27 07:26:02;;;;;;;36.20;26.48;;;;;;;;;;10271815;28;20503;-89
2022/03/27 07:31:04;;;;;;;36.72;26.92;;;;;;;;;;10290264;28;20499;-89
2022/03/27 07:36:07;;;;;;;34.83;26.35;;;;;;;;;;10298065;28;20483;-89
2022/03/27 07:41:10;;;;;;;40.53;28.13;;;;;;;;;;10289863;28;20406;-88
2022/03/27 07:46:12;;;;;;;41.92;29.75;;;;;;;;;;10286779;28;20438;-88
2022/03/27 07:51:14;;;;;;;40.33;29.85;;;;;;;;;;10325519;28;20444;-88
2022/03/27 07:56:17;;;;;;;45.30;32.23;;;;;;;;;;10270751;28;20511;-89
2022/03/27 08:01:20;;;;;;;43.77;32.90;;;;;;;;;;10310046;28;20524;-89
2022/03/27 08:06:22;;;;;;;45.78;33.80;;;;;;;;;;10305945;28;20418;-90
2022/03/27 08:11:25;;;;;;;47.43;28.87;;;;;;;;;;10292486;28;20421;-88
2022/03/27 08:16:27;;;;;;;37.47;27.90;;;;;;;;;;10290485;28;20410;-88
2022/03/27 08:21:29;;;;;;;35.85;27.00;;;;;;;;;;10279776;28;20764;-90
2022/03/27 08:31:52;;;;;;;32.33;24.33;;;;;;;;;;10288385;28;20478;-89
2022/03/27 08:36:55;;;;;;;30.35;23.20;;;;;;;;;;10295838;28;21131;-88
2022/03/27 08:42:01;;;;;;;34.40;23.88;;;;;;;;;;10277259;28;20408;-89
2022/03/27 08:47:07;;;;;;;33.05;24.00;;;;;;;;;;10299312;28;20413;-90
2022/03/27 08:52:34;;;;;;;31.23;23.08;;;;;;;;;;10301164;28;20495;-89
2022/03/27 08:57:57;;;;;;;31.47;22.50;;;;;;;;;;10290190;28;20428;-89
2022/03/27 09:03:01;;;;;;;30.70;22.97;;;;;;;;;;10273891;28;20448;-89
2022/03/27 09:08:07;;;;;;;28.27;22.30;;;;;;;;;;10280727;28;20503;-88
2022/03/27 09:13:13;;;;;;;29.37;21.40;;;;;;;;;;10278641;28;20460;-89
2022/03/27 09:18:16;;;;;;;30.52;21.98;;;;;;;;;;10278880;28;20958;-89
2022/03/27 09:23:24;;;;;;;26.92;21.75;;;;;;;;;;10279948;28;20501;-89
2022/03/27 09:28:32;;;;;;;29.17;22.08;;;;;;;;;;10290372;28;20404;-89
2022/03/27 09:33:48;;;;;;;27.55;20.25;;;;;;;;;;10283429;28;20489;-90
2022/03/27 09:39:08;;;;;;;31.87;23.47;;;;;;;;;;10270162;28;20418;-89
2022/03/27 09:44:14;;;;;;;29.30;21.93;;;;;;;;;;10289759;28;20520;-88
2022/03/27 09:49:16;;;;;;;36.00;23.97;;;;;;;;;;10308569;28;20418;-89
2022/03/27 09:54:18;;;;;;;30.25;22.75;;;;;;;;;;10298548;28;20410;-88
2022/03/27 09:59:29;;;;;;;29.33;22.80;;;;;;;;;;10298727;28;21183;-88
2022/03/27 10:04:31;;;;;;;29.90;23.00;;;;;;;;;;10287200;28;20417;-89
2022/03/27 10:09:37;;;;;;;29.63;21.50;;;;;;;;;;10284896;28;20901;-77
2022/03/27 10:14:42;;;;;;;33.00;23.60;;;;;;;;;;10295258;28;20892;-92
2022/03/27 10:19:49;;;;;;;29.17;22.73;;;;;;;;;;10314178;28;20766;-92
2022/03/27 10:24:55;;;;;;;33.55;23.92;;;;;;;;;;10280415;28;20487;-91
2022/03/27 10:30:00;;;;;;;28.27;22.45;;;;;;;;;;10316320;28;20453;-93
2022/03/27 10:35:13;;;;;;;31.15;23.02;;;;;;;;;;10342891;28;20450;-92
2022/03/27 10:40:22;;;;;;;34.03;23.33;;;;;;;;;;10279058;28;20867;-91
2022/03/27 10:45:25;;;;;;;30.07;21.90;;;;;;;;;;10288298;28;20895;-92
2022/03/27 10:50:28;;;;;;;29.27;20.90;;;;;;;;;;10308260;28;20411;-93
2022/03/27 10:55:38;;;;;;;28.20;21.95;;;;;;;;;;10289309;28;20420;-91
2022/03/27 11:00:42;;;;;;;32.15;24.85;;;;;;;;;;10272937;28;20412;-91
2022/03/27 11:06:03;;;;;;;29.42;22.45;;;;;;;;;;10297413;28;20784;-91
2022/03/27 11:11:05;;;;;;;26.83;19.53;;;;;;;;;;10362569;28;20420;-91
2022/03/27 11:16:11;;;;;;;28.70;21.90;;;;;;;;;;10310981;28;20973;-91
2022/03/27 11:21:14;;;;;;;27.08;21.38;;;;;;;;;;10352827;28;20385;-91
2022/03/27 11:26:35;;;;;;;25.43;20.27;;;;;;;;;;10340064;28;20406;-90
2022/03/27 11:31:39;;;;;;;25.65;19.73;;;;;;;;;;10278089;28;20419;-91
2022/03/27 11:36:43;;;;;;;23.13;18.52;;;;;;;;;;10304961;28;20460;-91
2022/03/27 11:41:46;;;;;;;21.80;17.52;;;;;;;;;;10286193;28;20946;-92
2022/03/27 11:46:51;;;;;;;16.47;13.03;;;;;;;;;;10303463;28;20414;-90
2022/03/27 11:52:06;;;;;;;20.95;15.57;;;;;;;;;;10268262;28;20901;-91
2022/03/27 11:57:09;;;;;;;22.40;16.58;;;;;;;;;;10303740;28;20421;-91
2022/03/27 12:02:12;;;;;;;22.23;18.30;;;;;;;;;;10311939;28;20420;-91
2022/03/27 12:07:14;;;;;;;25.45;19.70;;;;;;;;;;10289037;28;20412;-91
2022/03/27 12:12:19;;;;;;;25.80;19.33;;;;;;;;;;10280026;28;21625;-91
2022/03/27 12:17:23;;;;;;;23.98;17.58;;;;;;;;;;10313056;28;20427;-92
2022/03/27 12:22:33;;;;;;;23.87;19.83;;;;;;;;;;10275823;28;20978;-92
2022/03/27 12:32:57;;;;;;;23.20;17.90;;;;;;;;;;10296523;28;20755;-91
2022/03/27 12:38:00;;;;;;;23.33;16.90;;;;;;;;;;10254287;28;20525;-92
2022/03/27 12:43:12;;;;;;;23.00;18.00;;;;;;;;;;10299322;28;20680;-92
2022/03/27 12:48:20;;;;;;;19.77;16.20;;;;;;;;;;10290708;28;20417;-91
2022/03/27 12:53:28;;;;;;;21.13;16.52;;;;;;;;;;10310706;28;20434;-91
2022/03/27 12:58:38;;;;;;;25.30;17.63;;;;;;;;;;10292015;28;20516;-91
2022/03/27 13:03:58;;;;;;;19.08;16.33;;;;;;;;;;10293255;28;20515;-92
2022/03/27 13:09:03;;;;;;;21.95;16.88;;;;;;;;;;10303453;28;21151;-91
2022/03/27 13:14:07;;;;;;;21.70;16.73;;;;;;;;;;10270434;28;20500;-92
2022/03/27 13:19:12;;;;;;;21.90;17.17;;;;;;;;;;10293631;28;20420;-92
2022/03/27 13:24:16;;;;;;;22.85;17.20;;;;;;;;;;10315239;28;20426;-92
2022/03/27 13:29:22;;;;;;;21.00;16.20;;;;;;;;;;10276677;28;20431;-92
2022/03/27 13:34:26;;;;;;;19.38;16.85;;;;;;;;;;10287370;28;20423;-94
2022/03/27 13:39:29;;;;;;;20.83;17.33;;;;;;;;;;10289940;28;20424;-92
2022/03/27 13:44:33;;;;;;;22.60;19.13;;;;;;;;;;10289930;28;20408;-91
2022/03/27 13:49:36;;;;;;;25.27;20.55;;;;;;;;;;10289095;28;20928;-93
2022/03/27 13:54:39;;;;;;;26.80;19.90;;;;;;;;;;10289694;28;20504;-93
2022/03/27 13:59:41;;;;;;;24.05;19.73;;;;;;;;;;10286995;28;20931;-92
2022/03/27 14:04:44;;;;;;;25.70;20.33;;;;;;;;;;10295039;28;20987;-94
2022/03/27 14:09:46;;;;;;;24.48;18.92;;;;;;;;;;10317116;28;20415;-93
2022/03/27 14:14:48;;;;;;;23.43;19.47;;;;;;;;;;10339684;28;20403;-91
2022/03/27 14:19:52;;;;;;;22.92;18.65;;;;;;;;;;10324259;28;20925;-91
2022/03/27 14:24:54;;;;;;;23.00;18.40;;;;;;;;;;10319027;28;20666;-91
2022/03/27 14:29:56;;;;;;;29.27;17.27;;;;;;;;;;10315306;28;20424;-92
2022/03/27 14:35:00;;;;;;;18.33;16.27;;;;;;;;;;10292663;28;20488;-92
2022/03/27 14:40:02;;;;;;;18.42;15.80;;;;;;;;;;10300247;28;20914;-93
2022/03/27 14:45:06;;;;;;;18.15;15.00;;;;;;;;;;10257296;28;20832;-93
2022/03/27 14:50:12;;;;;;;17.70;15.13;;;;;;;;;;10246745;28;20415;-93
2022/03/27 15:00:35;;;;;;;20.80;15.80;;;;;;;;;;10259511;28;20417;-93
2022/03/27 15:05:39;;;;;;;19.27;15.03;;;;;;;;;;10256882;28;20434;-91
2022/03/27 15:10:42;;;;;;;15.57;13.75;;;;;;;;;;10235436;28;20412;-92
2022/03/27 15:15:44;;;;;;;16.05;13.75;;;;;;;;;;10242215;28;20418;-92
2022/03/27 15:20:47;;;;;;;15.52;13.00;;;;;;;;;;10219720;29;20920;-93
2022/03/27 15:25:49;;;;;;;14.80;12.70;;;;;;;;;;10232618;28;20479;-93
2022/03/27 15:30:51;;;;;;;16.95;13.10;;;;;;;;;;10238795;28;20438;-92
2022/03/27 15:35:54;;;;;;;14.40;12.88;;;;;;;;;;10240790;28;20868;-92
2022/03/27 15:40:56;;;;;;;15.55;13.65;;;;;;;;;;10248900;28;20427;-91
2022/03/27 15:45:59;;;;;;;14.02;12.52;;;;;;;;;;10257660;28;20414;-92
2022/03/27 15:51:02;;;;;;;15.15;12.82;;;;;;;;;;10277194;28;20504;-92
2022/03/27 15:56:06;;;;;;;17.17;13.05;;;;;;;;;;10277389;28;20714;-93
2022/03/27 16:01:12;;;;;;;17.37;13.77;;;;;;;;;;10272176;28;20438;-91
2022/03/27 16:06:15;;;;;;;15.25;12.90;;;;;;;;;;10252681;28;20891;-92
2022/03/27 16:11:17;;;;;;;14.65;13.00;;;;;;;;;;10275795;28;20441;-87
2022/03/27 16:16:19;;;;;;;16.75;13.10;;;;;;;;;;10267784;28;20414;-87
2022/03/27 16:21:22;;;;;;;13.80;11.93;;;;;;;;;;10277208;28;20434;-84
2022/03/27 16:26:24;;;;;;;16.90;12.63;;;;;;;;;;10261781;28;20410;-85
2022/03/27 16:31:26;;;;;;;15.80;13.30;;;;;;;;;;10269361;28;20403;-85
2022/03/27 16:36:30;;;;;;;16.17;13.47;;;;;;;;;;10280691;28;20894;-85
2022/03/27 16:41:32;;;;;;;15.53;13.30;;;;;;;;;;10309962;28;20422;-85
2022/03/27 16:46:33;;;;;;;19.52;13.85;;;;;;;;;;10272961;28;20419;-84
2022/03/27 16:51:37;;;;;;;17.63;13.50;;;;;;;;;;10275512;28;20770;-83
2022/03/27 16:56:38;;;;;;;17.27;14.07;;;;;;;;;;10276516;28;20415;-84
2022/03/27 17:01:40;;;;;;;16.20;13.30;;;;;;;;;;10257644;28;20434;-84
2022/03/27 17:06:44;;;;;;;17.60;13.30;;;;;;;;;;10269256;28;20404;-85
2022/03/27 17:11:45;;;;;;;14.80;13.23;;;;;;;;;;10266886;28;20798;-84
2022/03/27 17:16:47;;;;;;;17.27;14.33;;;;;;;;;;10268206;28;20609;-84
2022/03/27 17:21:51;;;;;;;17.73;14.90;;;;;;;;;;10259441;28;20440;-83
2022/03/27 17:26:53;;;;;;;19.40;15.07;;;;;;;;;;10257499;28;20489;-85
2022/03/27 17:31:56;;;;;;;23.48;16.23;;;;;;;;;;10266915;28;20502;-86
2022/03/27 17:37:00;;;;;;;17.90;15.67;;;;;;;;;;10267167;28;20523;-84
2022/03/27 17:42:02;;;;;;;22.42;17.30;;;;;;;;;;10268726;28;20917;-85
2022/03/27 17:47:05;;;;;;;22.02;16.73;;;;;;;;;;10266706;28;20418;-84
2022/03/27 17:52:08;;;;;;;21.70;17.77;;;;;;;;;;10264047;28;20457;-84
2022/03/27 17:57:10;;;;;;;24.05;18.45;;;;;;;;;;10256728;28;20419;-84
2022/03/27 18:02:12;;;;;;;27.52;21.77;;;;;;;;;;10256536;28;20426;-84
2022/03/27 18:07:16;;;;;;;27.73;22.30;;;;;;;;;;10262733;28;20421;-86
2022/03/27 18:12:18;;;;;;;28.38;22.48;;;;;;;;;;10279482;28;20419;-86
2022/03/27 18:17:22;;;;;;;27.60;22.90;;;;;;;;;;10270340;28;20422;-85
2022/03/27 18:22:26;;;;;;;28.02;23.10;;;;;;;;;;10277809;28;20411;-85
2022/03/27 18:27:28;;;;;;;26.83;22.40;;;;;;;;;;10275080;28;20411;-85
2022/03/27 18:32:29;;;;;;;26.52;23.55;;;;;;;;;;10274537;28;20433;-86
2022/03/27 18:37:33;;;;;;;27.92;23.20;;;;;;;;;;10264820;28;20785;-85
2022/03/27 18:42:34;;;;;;;30.25;24.48;;;;;;;;;;10268913;28;20428;-85
2022/03/27 18:47:36;;;;;;;31.05;23.00;;;;;;;;;;10269962;28;20509;-88
2022/03/27 18:52:40;;;;;;;28.47;24.03;;;;;;;;;;10272317;28;20416;-89
2022/03/27 18:57:42;;;;;;;30.38;24.08;;;;;;;;;;10271110;28;20511;-91
2022/03/27 19:02:45;;;;;;;27.05;23.23;;;;;;;;;;10276108;28;20424;-90
2022/03/27 19:07:48;;;;;;;31.80;24.37;;;;;;;;;;10269044;28;20426;-90
2022/03/27 19:12:50;;;;;;;31.53;24.63;;;;;;;;;;10272633;28;20584;-90
2022/03/27 19:17:54;;;;;;;29.75;23.58;;;;;;;;;;10261774;28;20486;-89
2022/03/27 19:23:04;;;;;;;30.35;24.27;;;;;;;;;;10264658;28;20429;-87
2022/03/27 19:28:09;;;;;;;29.97;23.77;;;;;;;;;;10265770;28;20414;-87
2022/03/27 19:33:11;;;;;;;29.87;23.70;;;;;;;;;;10265310;28;20428;-87
2022/03/27 19:38:15;;;;;;;35.47;24.55;;;;;;;;;;10245943;28;20791;-88
2022/03/27 19:43:17;;;;;;;29.23;24.70;;;;;;;;;;10260045;28;20862;-88
2022/03/27 19:48:19;;;;;;;32.40;26.02;;;;;;;;;;10259817;28;20412;-88
2022/03/27 19:53:22;;;;;;;37.70;28.25;;;;;;;;;;10260882;28;20410;-89
2022/03/27 19:58:24;;;;;;;37.67;30.83;;;;;;;;;;10242889;28;20903;-87
2022/03/27 20:03:27;;;;;;;39.42;30.55;;;;;;;;;;10268432;28;20445;-89
2022/03/27 20:08:30;;;;;;;40.50;29.23;;;;;;;;;;10267882;28;20543;-88
2022/03/27 20:13:34;;;;;;;40.13;29.83;;;;;;;;;;10250101;28;20410;-88
2022/03/27 20:18:36;;;;;;;42.90;33.17;;;;;;;;;;10263468;28;20452;-88
2022/03/27 20:23:40;;;;;;;40.60;32.60;;;;;;;;;;10257998;28;20424;-88
2022/03/27 20:28:42;;;;;;;41.33;33.70;;;;;;;;;;10261691;28;20900;-89
2022/03/27 20:33:44;;;;;;;47.40;36.53;;;;;;;;;;10257718;28;20440;-89
2022/03/27 20:38:47;;;;;;;46.73;35.93;;;;;;;;;;10267025;28;20521;-88
2022/03/27 20:43:49;;;;;;;42.83;33.53;;;;;;;;;;10277694;28;20473;-87
2022/03/27 20:48:51;;;;;;;43.90;35.03;;;;;;;;;;10254695;28;20427;-87
2022/03/27 20:53:55;;;;;;;46.37;34.80;;;;;;;;;;10269956;28;20455;-89
2022/03/27 20:58:57;;;;;;;43.40;34.57;;;;;;;;;;10270663;28;20525;-90
2022/03/27 21:04:00;;;;;;;47.03;34.55;;;;;;;;;;10289397;28;20402;-92
2022/03/27 21:09:03;;;;;;;43.20;34.60;;;;;;;;;;10275618;28;20424;-92
2022/03/27 21:14:06;;;;;;;42.67;32.75;;;;;;;;;;10265846;28;20520;-91
2022/03/27 21:19:08;;;;;;;41.90;32.33;;;;;;;;;;10263735;28;20422;-88
2022/03/27 21:24:12;;;;;;;40.83;32.80;;;;;;;;;;10274015;28;20422;-90
2022/03/27 21:29:14;;;;;;;44.10;32.30;;;;;;;;;;10260049;28;20434;-90
2022/03/27 21:34:16;;;;;;;44.88;33.20;;;;;;;;;;10254993;28;20926;-91
2022/03/27 21:39:20;;;;;;;45.35;34.28;;;;;;;;;;10297265;28;20402;-90
2022/03/27 21:44:24;;;;;;;44.05;34.55;;;;;;;;;;10290547;28;20441;-91
2022/03/27 21:49:26;;;;;;;48.08;35.30;;;;;;;;;;10314106;28;20401;-90
2022/03/27 21:54:30;;;;;;;46.10;35.40;;;;;;;;;;10282669;28;20453;-91
2022/03/27 21:59:31;;;;;;;47.75;36.78;;;;;;;;;;10272777;28;20422;-90
2022/03/27 22:04:33;;;;;;;47.87;36.83;;;;;;;;;;10279198;28;20970;-90
2022/03/27 22:09:37;;;;;;;47.92;36.53;;;;;;;;;;10286629;28;20429;-90
2022/03/27 22:14:39;;;;;;;47.80;37.38;;;;;;;;;;10267194;28;20399;-90
2022/03/27 22:19:41;;;;;;;48.10;37.13;;;;;;;;;;10275276;28;20906;-90
2022/03/27 22:24:44;;;;;;;49.87;37.47;;;;;;;;;;10281263;28;20502;-91
2022/03/27 22:29:46;;;;;;;50.00;38.30;;;;;;;;;;10277027;28;20669;-90
2022/03/27 22:34:48;;;;;;;50.00;38.43;;;;;;;;;;10238499;28;20411;-90
2022/03/27 22:39:51;;;;;;;55.63;39.22;;;;;;;;;;10277674;28;20542;-89
2022/03/27 22:44:53;;;;;;;53.22;39.58;;;;;;;;;;10277106;28;20456;-88
2022/03/27 22:49:55;;;;;;;55.10;41.33;;;;;;;;;;10262573;28;20482;-89
2022/03/27 22:55:00;;;;;;;54.53;41.13;;;;;;;;;;10260445;28;20410;-89
2022/03/27 23:00:02;;;;;;;55.33;41.67;;;;;;;;;;10270191;28;20441;-90
2022/03/27 23:05:05;;;;;;;56.90;42.50;;;;;;;;;;10271955;28;20418;-89
2022/03/27 23:10:10;;;;;;;56.00;42.42;;;;;;;;;;10279738;28;20473;-89
2022/03/27 23:15:12;;;;;;;53.85;42.95;;;;;;;;;;10279922;28;20711;-89
2022/03/27 23:20:14;;;;;;;54.17;43.10;;;;;;;;;;10270702;28;20978;-90
2022/03/27 23:25:18;;;;;;;53.30;43.42;;;;;;;;;;10262382;28;20411;-90
2022/03/27 23:30:20;;;;;;;57.47;44.67;;;;;;;;;;10278547;28;20419;-92
2022/03/27 23:35:22;;;;;;;56.13;44.42;;;;;;;;;;10278698;28;20549;-91
2022/03/27 23:40:26;;;;;;;60.38;44.85;;;;;;;;;;10255096;28;20509;-91
2022/03/27 23:45:28;;;;;;;58.70;45.83;;;;;;;;;;10272125;28;20505;-88
2022/03/27 23:50:31;;;;;;;57.67;46.13;;;;;;;;;;10283742;28;20442;-92
2022/03/27 23:55:34;;;;;;;60.00;45.93;;;;;;;;;;10235772;28;20418;-90
